Time;durP1;ratioP1;P1;durP2;ratioP2;P2;SDS_P1;SDS_P2;PMS_P1;PMS_P2;Temp;Humidity;BMP_temperature;BMP_pressure;BME280_temperature;BME280_humidity;BME280_pressure;Samples;Min_cycle;Max_cycle;Signal;HPM_P1;HPM_P2
2021/12/05 00:21:41;;;;;;;13.38;4.97;;;;;;;3.29;90.52;99734.84;5040807;28;20044;-64
2021/12/05 00:24:14;;;;;;;14.73;5.07;;;;;;;3.27;90.37;99732.34;5039807;28;20036;-62
2021/12/05 00:26:45;;;;;;;18.65;5.53;;;;;;;3.32;90.08;99735.28;5029687;28;20036;-62
2021/12/05 00:29:17;;;;;;;21.83;6.15;;;;;;;3.31;90.11;99736.31;5038690;28;20108;-62
2021/12/05 00:31:54;;;;;;;13.80;4.60;;;;;;;3.31;90.37;99735.50;5028767;28;20045;-62
2021/12/05 00:43:20;;;;;;;14.77;6.45;;;;;;;3.26;89.69;99735.28;5044425;28;20091;-63
2021/12/05 00:46:14;;;;;;;13.70;4.38;;;;;;;3.27;89.70;99734.22;5020365;28;20492;-62
2021/12/05 00:52:05;;;;;;;16.05;4.95;;;;;;;3.16;89.62;99734.88;5025334;28;20033;-62
2021/12/05 00:55:00;;;;;;;19.42;6.28;;;;;;;3.10;89.98;99744.69;5016165;28;20037;-62
2021/12/05 01:07:43;;;;;;;21.95;6.50;;;;;;;2.90;90.36;99747.41;5023937;28;20041;-62
2021/12/05 01:10:31;;;;;;;14.45;5.47;;;;;;;2.81;90.95;99745.94;5023796;28;20460;-62
2021/12/05 01:15:40;;;;;;;18.15;5.82;;;;;;;2.79;91.52;99748.03;5032943;28;20041;-62
2021/12/05 01:18:10;;;;;;;20.13;5.85;;;;;;;2.75;91.33;99752.19;5027768;28;20353;-62
2021/12/05 01:20:43;;;;;;;22.30;5.90;;;;;;;2.75;91.18;99753.03;5044512;28;20029;-62
2021/12/05 01:23:21;;;;;;;20.90;6.50;;;;;;;2.68;91.71;99757.56;5041087;28;20442;-62
2021/12/05 01:25:57;;;;;;;18.42;5.70;;;;;;;2.66;91.58;99754.25;5023439;28;20037;-63
2021/12/05 01:31:05;;;;;;;22.50;6.75;;;;;;;2.53;91.98;99749.63;5035535;28;20034;-62
2021/12/05 01:33:41;;;;;;;15.55;6.63;;;;;;;2.46;92.33;99740.66;5024868;28;20079;-62
2021/12/05 01:36:35;;;;;;;19.63;6.35;;;;;;;2.46;91.86;99746.06;5028763;28;20096;-62
2021/12/05 01:39:08;;;;;;;29.50;6.55;;;;;;;2.39;92.39;99753.38;5039764;28;20045;-62
2021/12/05 01:44:47;;;;;;;19.20;6.00;;;;;;;2.25;92.94;99746.25;5018675;28;20067;-62
2021/12/05 01:50:14;;;;;;;23.60;7.65;;;;;;;2.17;93.41;99735.56;5029431;28;20048;-62
2021/12/05 01:52:59;;;;;;;21.50;5.97;;;;;;;2.16;93.60;99734.75;5022283;28;20079;-62
2021/12/05 02:07:49;;;;;;;19.83;5.72;;;;;;;2.21;93.33;99743.09;5023731;28;20123;-62
2021/12/05 02:09:08;;;;;;;20.83;5.80;;;;;;;2.14;93.49;99734.13;5027395;28;20437;-62
2021/12/05 02:11:52;;;;;;;21.42;5.75;;;;;;;2.08;93.56;99730.34;5025502;28;20113;-62
2021/12/05 02:41:21;;;;;;;14.50;4.93;;;;;;;2.16;94.29;99728.50;5026166;28;20040;-62
2021/12/05 02:43:55;;;;;;;18.85;5.20;;;;;;;2.15;94.64;99719.53;5023908;28;20030;-62
2021/12/05 02:46:23;;;;;;;15.65;4.72;;;;;;;2.19;94.80;99719.97;5040049;28;20029;-62
2021/12/05 02:48:49;;;;;;;13.07;4.78;;;;;;;2.18;94.78;99713.72;5033670;28;20037;-62
2021/12/05 02:51:24;;;;;;;18.70;5.50;;;;;;;2.20;94.52;99718.94;5023349;28;20025;-62
2021/12/05 02:54:17;;;;;;;14.73;4.43;;;;;;;2.18;94.84;99718.28;5027616;28;20130;-62
2021/12/05 02:56:41;;;;;;;20.55;5.30;;;;;;;2.19;94.69;99728.09;5031590;28;20434;-62
2021/12/05 02:59:20;;;;;;;20.05;4.97;;;;;;;2.17;94.95;99722.88;5047106;28;20059;-61
2021/12/05 03:01:51;;;;;;;17.92;4.70;;;;;;;2.15;95.25;99724.13;5031949;28;20063;-62
2021/12/05 03:04:17;;;;;;;17.95;5.07;;;;;;;2.11;95.03;99720.13;5026671;28;20042;-61
2021/12/05 03:06:51;;;;;;;15.68;4.80;;;;;;;2.11;95.24;99720.13;5040711;28;20051;-62
2021/12/05 03:09:16;;;;;;;18.70;5.82;;;;;;;2.16;95.15;99717.66;5025972;28;20033;-62
2021/12/05 03:11:43;;;;;;;21.55;4.80;;;;;;;2.19;95.73;99722.69;5036423;28;20513;-62
2021/12/05 03:14:09;;;;;;;19.55;5.00;;;;;;;2.26;95.51;99718.09;5027084;28;20061;-62
2021/12/05 03:16:36;;;;;;;18.75;5.28;;;;;;;2.34;95.19;99717.94;5043602;28;20084;-62
2021/12/05 03:19:04;;;;;;;16.90;4.38;;;;;;;2.36;94.89;99715.84;5040000;28;20033;-62
2021/12/05 03:21:29;;;;;;;17.00;4.97;;;;;;;2.45;94.87;99716.47;5026735;28;20025;-63
2021/12/05 03:23:56;;;;;;;17.55;4.70;;;;;;;2.43;94.66;99719.38;5032466;28;20102;-62
2021/12/05 03:26:26;;;;;;;20.40;5.40;;;;;;;2.44;95.10;99714.81;5041163;28;20040;-62
2021/12/05 03:28:54;;;;;;;17.05;5.00;;;;;;;2.44;94.96;99723.78;5027239;28;20427;-62
2021/12/05 03:31:20;;;;;;;;;;;;;;;2.51;94.95;99719.19;5027059;28;20028;-62
2021/12/05 03:33:46;;;;;;;22.98;5.95;;;;;;;2.44;94.73;99723.78;5026362;28;20382;-61
2021/12/05 03:36:11;;;;;;;17.50;5.13;;;;;;;2.43;95.02;99722.09;5027957;28;20022;-62
2021/12/05 03:38:37;;;;;;;12.63;4.65;;;;;;;2.43;94.91;99713.13;5046471;28;20567;-62
2021/12/05 03:41:04;;;;;;;16.98;5.32;;;;;;;2.44;95.25;99721.06;5041629;28;20467;-62
2021/12/05 03:43:30;;;;;;;13.50;5.53;;;;;;;2.44;95.18;99722.94;5045394;28;20116;-62
2021/12/05 03:45:57;;;;;;;15.10;4.82;;;;;;;2.43;95.39;99719.38;5032658;28;20036;-61
2021/12/05 03:48:27;;;;;;;16.20;5.60;;;;;;;2.49;95.28;99721.28;5029427;28;20059;-62
2021/12/05 03:50:54;;;;;;;19.20;6.20;;;;;;;2.54;94.94;99716.09;5038599;28;20032;-62
2021/12/05 03:53:20;;;;;;;16.52;5.50;;;;;;;2.57;95.14;99726.50;5026694;28;20131;-62
2021/12/05 03:55:48;;;;;;;17.33;5.57;;;;;;;2.60;94.94;99719.84;5025036;28;20140;-62
2021/12/05 03:58:16;;;;;;;16.25;5.70;;;;;;;2.63;95.21;99714.00;5044842;28;20033;-62
2021/12/05 04:00:44;;;;;;;15.75;6.43;;;;;;;2.65;94.87;99719.22;5036550;28;20152;-62
2021/12/05 04:03:14;;;;;;;18.65;6.70;;;;;;;2.69;94.64;99717.78;5028414;28;20041;-62
2021/12/05 04:05:40;;;;;;;14.43;6.47;;;;;;;2.73;94.38;99710.88;5045218;28;20354;-62
2021/12/05 04:08:08;;;;;;;14.63;6.88;;;;;;;2.75;94.64;99719.66;5027903;28;20049;-62
2021/12/05 04:10:36;;;;;;;14.38;6.63;;;;;;;2.85;94.62;99711.94;5025132;28;20025;-62
2021/12/05 04:13:02;;;;;;;17.10;6.38;;;;;;;2.82;94.83;99718.59;5041135;28;20044;-64
2021/12/05 04:15:28;;;;;;;16.98;7.32;;;;;;;2.85;94.42;99725.50;5030856;28;20026;-62
2021/12/05 04:17:53;;;;;;;16.67;6.70;;;;;;;2.91;94.14;99719.22;5025900;28;20030;-62
2021/12/05 04:20:20;;;;;;;17.90;6.68;;;;;;;2.89;94.49;99715.03;5038387;28;20040;-62
2021/12/05 04:22:46;;;;;;;19.98;6.97;;;;;;;2.90;94.33;99725.72;5027167;28;20445;-62
2021/12/05 04:25:14;;;;;;;18.65;7.20;;;;;;;2.93;94.15;99716.31;5026081;28;20392;-62
2021/12/05 04:27:42;;;;;;;17.50;7.18;;;;;;;2.93;94.10;99721.72;5024954;28;20045;-62
2021/12/05 04:30:09;;;;;;;;;;;;;;;3.02;94.18;99712.34;5044884;28;20372;-62
2021/12/05 04:32:34;;;;;;;12.77;6.28;;;;;;;3.03;93.15;99708.56;5030291;28;19970;-62
2021/12/05 04:35:00;;;;;;;16.05;6.82;;;;;;;2.99;93.70;99710.91;5043074;28;20036;-63
2021/12/05 04:37:25;;;;;;;12.77;6.78;;;;;;;3.01;93.74;99711.50;5034251;28;20025;-62
2021/12/05 04:39:51;;;;;;;15.50;6.97;;;;;;;3.02;93.62;99710.47;5025222;28;20148;-61
2021/12/05 04:42:17;;;;;;;15.13;7.28;;;;;;;3.07;93.36;99721.50;5042309;28;20508;-62
2021/12/05 04:44:43;;;;;;;11.57;5.93;;;;;;;3.05;93.69;99714.66;5028269;28;20035;-63
2021/12/05 04:47:10;;;;;;;14.80;6.25;;;;;;;3.07;93.58;99720.69;5041887;28;20032;-62
2021/12/05 04:49:36;;;;;;;12.20;6.65;;;;;;;3.09;93.60;99714.03;5043971;28;20079;-62
2021/12/05 04:52:02;;;;;;;14.73;6.60;;;;;;;3.08;93.90;99714.22;5024992;28;20029;-63
2021/12/05 04:54:27;;;;;;;12.38;6.13;;;;;;;3.06;94.07;99717.13;5025363;28;20025;-61
2021/12/05 04:56:53;;;;;;;13.60;6.78;;;;;;;3.13;93.70;99709.81;5043422;28;20509;-61
2021/12/05 04:59:23;;;;;;;14.07;6.45;;;;;;;3.10;93.62;99714.84;5044384;28;20059;-62
2021/12/05 05:01:50;;;;;;;16.13;6.10;;;;;;;3.08;93.70;99709.63;5026086;28;20065;-62
2021/12/05 05:04:42;;;;;;;14.82;5.85;;;;;;;3.06;93.84;99714.44;5024773;28;20882;-62
2021/12/05 05:07:10;;;;;;;12.98;6.32;;;;;;;3.12;93.69;99716.28;5044557;28;20120;-62
2021/12/05 05:09:35;;;;;;;12.73;6.03;;;;;;;3.09;93.97;99718.59;5044681;28;20032;-62
2021/12/05 05:12:01;;;;;;;13.68;5.97;;;;;;;3.08;93.83;99716.91;5024893;28;20025;-62
2021/12/05 05:14:27;;;;;;;17.75;6.88;;;;;;;3.08;94.05;99720.47;5026941;28;20028;-62
2021/12/05 05:16:54;;;;;;;13.25;5.95;;;;;;;3.08;94.32;99719.63;5044468;28;20507;-62
2021/12/05 05:19:23;;;;;;;13.18;5.97;;;;;;;3.08;94.27;99728.59;5043233;28;20071;-61
2021/12/05 05:22:10;;;;;;;17.13;7.07;;;;;;;3.09;94.46;99722.16;5025863;28;20041;-62
2021/12/05 05:30:30;;;;;;;11.95;5.43;;;;;;;3.09;94.23;99735.72;5039898;28;20098;-63
2021/12/05 05:46:23;;;;;;;11.68;4.97;;;;;;;3.03;94.56;99755.53;5030721;28;20037;-62
2021/12/05 05:51:16;;;;;;;10.05;4.38;;;;;;;3.07;94.12;99748.66;5033029;28;20121;-61
2021/12/05 05:53:43;;;;;;;11.47;5.23;;;;;;;3.04;94.37;99754.50;5024484;28;20022;-62
2021/12/05 05:56:13;;;;;;;7.40;4.20;;;;;;;3.05;94.69;99758.88;5034333;28;20676;-62
2021/12/05 05:58:49;;;;;;;9.40;4.90;;;;;;;3.05;94.50;99758.06;5039128;28;20530;-61
2021/12/05 06:03:59;;;;;;;11.93;5.57;;;;;;;3.02;94.87;99759.28;5041453;28;20060;-62
2021/12/05 06:06:25;;;;;;;9.48;4.38;;;;;;;3.07;94.56;99764.91;5041518;28;20036;-62
2021/12/05 06:08:50;;;;;;;9.27;5.40;;;;;;;3.02;94.34;99766.59;5023857;28;20353;-62
2021/12/05 06:11:16;;;;;;;8.32;4.45;;;;;;;3.07;93.81;99781.19;5033268;28;20040;-61
2021/12/05 06:13:43;;;;;;;7.70;4.22;;;;;;;3.05;93.95;99771.63;5036169;28;20029;-62
2021/12/05 06:16:10;;;;;;;7.43;3.70;;;;;;;3.04;93.60;99775.34;5027418;28;20024;-62
2021/12/05 06:18:36;;;;;;;5.60;3.75;;;;;;;3.02;93.15;99785.56;5024803;28;20113;-62
2021/12/05 06:21:02;;;;;;;7.88;4.10;;;;;;;2.95;93.39;99791.00;5030885;28;21641;-64
2021/12/05 06:23:28;;;;;;;9.05;4.22;;;;;;;2.91;94.26;99789.75;5031648;28;20060;-62
2021/12/05 06:25:54;;;;;;;7.43;4.32;;;;;;;2.91;94.18;99792.44;5041546;28;20107;-62
2021/12/05 06:28:28;;;;;;;6.35;4.10;;;;;;;2.91;94.32;99791.63;5037021;28;20060;-61
2021/12/05 06:31:08;;;;;;;8.02;4.13;;;;;;;2.91;94.42;99787.03;5041081;28;20071;-62
2021/12/05 06:39:20;;;;;;;7.35;3.80;;;;;;;2.83;93.71;99796.19;5022692;28;20099;-64
2021/12/05 06:41:56;;;;;;;6.80;3.75;;;;;;;2.78;94.02;99800.56;5036732;28;20040;-62
2021/12/05 06:47:09;;;;;;;7.22;4.28;;;;;;;2.78;94.55;99805.97;5020853;28;20590;-62
2021/12/05 06:49:34;;;;;;;7.95;4.50;;;;;;;2.78;94.42;99808.69;5032379;28;20086;-62
2021/12/05 06:52:00;;;;;;;8.52;4.35;;;;;;;2.75;94.75;99811.84;5031958;28;20127;-62
2021/12/05 06:54:25;;;;;;;7.07;4.25;;;;;;;2.79;94.62;99813.94;5030872;28;20032;-62
2021/12/05 06:56:51;;;;;;;8.35;4.20;;;;;;;2.74;94.54;99818.31;5042697;28;20108;-61
2021/12/05 06:59:17;;;;;;;7.88;4.45;;;;;;;2.80;94.63;99825.59;5037050;28;20100;-62
2021/12/05 07:01:42;;;;;;;7.38;4.10;;;;;;;2.75;94.88;99828.09;5023477;28;20033;-62
2021/12/05 07:04:30;;;;;;;7.03;4.85;;;;;;;2.76;95.19;99837.91;5023401;28;20033;-62
2021/12/05 07:06:53;;;;;;;8.07;4.55;;;;;;;2.77;95.06;99837.69;5022862;28;20045;-61
2021/12/05 07:09:18;;;;;;;7.00;4.68;;;;;;;2.77;94.81;99834.97;5022423;28;20029;-61
2021/12/05 07:12:15;;;;;;;7.00;4.55;;;;;;;2.77;95.17;99839.56;5028677;28;20444;-62
2021/12/05 07:14:47;;;;;;;8.70;4.15;;;;;;;2.78;95.50;99849.38;5043050;28;20036;-62
2021/12/05 07:20:02;;;;;;;7.88;4.63;;;;;;;2.82;95.13;99853.34;5023451;28;20474;-62
2021/12/05 07:22:44;;;;;;;7.80;4.30;;;;;;;2.83;95.07;99860.44;5035193;28;20491;-62
2021/12/05 07:25:25;;;;;;;7.55;4.57;;;;;;;2.83;94.94;99865.84;5041151;28;20029;-62
2021/12/05 07:41:55;;;;;;;9.68;5.68;;;;;;;2.93;95.15;99873.59;5025939;28;20052;-62
2021/12/05 07:44:21;;;;;;;8.52;6.15;;;;;;;2.93;95.48;99876.31;5039207;28;20378;-61
2021/12/05 07:46:47;;;;;;;10.68;6.15;;;;;;;2.96;95.24;99879.47;5045127;28;20035;-61
2021/12/05 07:49:14;;;;;;;9.73;5.88;;;;;;;2.94;95.29;99886.97;5044670;28;20406;-61
2021/12/05 07:51:44;;;;;;;8.40;5.93;;;;;;;2.93;95.62;99890.69;5027849;28;20431;-62
2021/12/05 07:54:16;;;;;;;9.80;6.03;;;;;;;2.93;95.62;99896.13;5034625;28;20086;-62
2021/12/05 07:56:48;;;;;;;9.75;5.45;;;;;;;2.95;95.43;99896.78;5032041;28;20124;-62
2021/12/05 07:59:35;;;;;;;11.23;6.35;;;;;;;2.96;95.88;99893.03;5030048;28;20026;-62
2021/12/05 08:15:45;;;;;;;11.23;6.85;;;;;;;3.03;95.80;99893.84;5027528;28;20083;-62
2021/12/05 08:18:10;;;;;;;9.40;6.72;;;;;;;3.04;96.05;99900.97;5026278;28;20216;-62
2021/12/05 08:20:41;;;;;;;9.02;6.63;;;;;;;3.08;95.68;99902.22;5028194;28;20741;-63
2021/12/05 08:23:07;;;;;;;10.88;7.40;;;;;;;3.07;95.65;99902.44;5041337;28;20456;-62
2021/12/05 08:25:38;;;;;;;11.35;6.88;;;;;;;3.10;95.44;99913.72;5024896;28;20018;-62
2021/12/05 08:31:02;;;;;;;10.57;6.43;;;;;;;3.15;95.41;99907.69;5027005;28;20048;-62
2021/12/05 09:52:31;;;;;;;13.50;9.05;;;;;;;3.56;93.79;100016.13;5024077;28;20325;-62
2021/12/05 10:11:49;;;;;;;12.82;8.98;;;;;;;3.70;93.75;100051.44;5020570;28;20033;-63
2021/12/05 10:14:45;;;;;;;13.68;8.77;;;;;;;3.66;93.52;100047.47;5023639;28;20064;-63
2021/12/05 10:37:17;;;;;;;12.27;8.98;;;;;;;4.03;92.40;100074.06;5016946;28;20041;-61
2021/12/05 10:39:43;;;;;;;11.65;9.38;;;;;;;3.89;93.32;100073.19;5025312;28;20216;-62
2021/12/05 10:42:37;;;;;;;15.32;10.15;;;;;;;3.90;93.12;100079.47;5029917;28;20060;-60
2021/12/05 10:45:09;;;;;;;15.18;10.30;;;;;;;3.89;93.41;100078.63;5043515;28;20048;-61
2021/12/05 10:47:47;;;;;;;14.77;10.25;;;;;;;3.91;93.02;100086.59;5027093;28;20108;-61
2021/12/05 10:50:30;;;;;;;14.75;10.48;;;;;;;3.88;93.42;100087.00;5023062;28;20026;-61
2021/12/05 10:53:17;;;;;;;12.15;9.60;;;;;;;3.88;93.28;100087.84;5037423;28;20029;-62
2021/12/05 10:55:42;;;;;;;13.55;10.48;;;;;;;3.81;93.50;100087.00;5027957;28;20075;-62
2021/12/05 10:58:07;;;;;;;13.38;10.60;;;;;;;3.83;93.09;100095.75;5039437;28;20033;-62
2021/12/05 11:00:33;;;;;;;14.45;11.07;;;;;;;3.82;93.08;100088.66;5023579;28;20040;-62
2021/12/05 11:03:17;;;;;;;16.35;11.40;;;;;;;3.83;93.84;100089.50;5027255;28;20115;-62
2021/12/05 11:05:42;;;;;;;16.92;11.73;;;;;;;3.81;93.07;100092.41;5032883;28;20115;-61
2021/12/05 11:08:34;;;;;;;17.75;10.65;;;;;;;3.81;93.72;100091.59;5034167;28;20155;-61
2021/12/05 11:11:09;;;;;;;13.85;10.15;;;;;;;3.76;93.33;100088.66;5023309;28;20056;-62
2021/12/05 11:13:37;;;;;;;15.75;11.60;;;;;;;3.76;93.80;100094.91;5036679;28;20056;-61
2021/12/05 11:16:03;;;;;;;14.85;11.15;;;;;;;3.76;93.67;100094.09;5046831;28;20029;-64
2021/12/05 11:18:45;;;;;;;13.88;10.25;;;;;;;3.80;92.98;100098.91;5047618;28;20483;-62
2021/12/05 11:21:33;;;;;;;14.35;11.00;;;;;;;3.85;92.85;100107.28;5042081;28;20057;-62
2021/12/05 11:24:12;;;;;;;13.77;10.43;;;;;;;3.80;92.92;100108.91;5027327;28;20385;-62
2021/12/05 11:26:40;;;;;;;15.15;10.95;;;;;;;3.79;92.34;100108.06;5027127;28;20382;-62
2021/12/05 11:29:07;;;;;;;13.75;10.85;;;;;;;3.78;92.53;100113.72;5026906;28;20025;-62
2021/12/05 11:31:35;;;;;;;16.20;12.07;;;;;;;3.78;92.47;100119.97;5026925;28;20431;-62
2021/12/05 11:34:00;;;;;;;17.35;12.65;;;;;;;3.80;92.47;100117.06;5026497;28;20472;-62
2021/12/05 11:36:29;;;;;;;17.17;10.85;;;;;;;3.83;92.80;100122.91;5027227;28;20060;-62
2021/12/05 11:38:55;;;;;;;15.35;11.02;;;;;;;3.86;92.51;100127.13;5026881;28;20547;-62
2021/12/05 11:41:22;;;;;;;16.30;11.05;;;;;;;3.86;92.74;100124.41;5025245;28;20104;-62
2021/12/05 11:43:54;;;;;;;13.35;10.95;;;;;;;3.89;92.55;100132.13;5026903;28;20029;-61
2021/12/05 11:46:34;;;;;;;15.75;10.80;;;;;;;3.90;92.17;100139.22;5026272;28;20029;-61
2021/12/05 11:49:06;;;;;;;14.15;10.45;;;;;;;3.89;92.14;100132.13;5025916;28;20056;-62
2021/12/05 11:51:35;;;;;;;13.85;9.73;;;;;;;3.86;91.97;100133.38;5026797;28;20112;-62
2021/12/05 11:54:17;;;;;;;22.88;14.50;;;;;;;3.85;91.53;100139.00;5026602;28;20049;-62
2021/12/05 11:56:56;;;;;;;19.30;12.57;;;;;;;3.83;92.01;100144.66;5027703;28;20396;-62
2021/12/05 11:59:33;;;;;;;15.90;11.48;;;;;;;3.81;91.36;100143.19;5026281;28;20124;-62
2021/12/05 12:02:14;;;;;;;17.07;12.97;;;;;;;3.83;91.17;100146.53;5041228;28;20063;-63
2021/12/05 12:04:45;;;;;;;15.10;11.02;;;;;;;3.89;91.54;100143.00;5043224;28;20095;-62
2021/12/05 12:07:29;;;;;;;14.50;11.52;;;;;;;3.94;91.66;100154.09;5026576;28;20029;-62
2021/12/05 12:09:58;;;;;;;14.43;11.00;;;;;;;3.95;91.89;100158.47;5028832;28;20033;-61
2021/12/05 12:12:25;;;;;;;13.40;10.40;;;;;;;3.92;91.24;100149.91;5046503;28;20021;-61
2021/12/05 12:14:50;;;;;;;14.45;10.13;;;;;;;3.91;91.46;100154.50;5036487;28;20026;-62
2021/12/05 12:17:16;;;;;;;13.88;10.70;;;;;;;3.93;91.58;100157.00;5023790;28;20032;-62
2021/12/05 12:19:48;;;;;;;13.30;9.70;;;;;;;3.90;91.38;100156.38;5026104;28;20079;-61
2021/12/05 12:22:16;;;;;;;13.85;9.48;;;;;;;3.88;91.12;100155.75;5026004;28;20079;-62
2021/12/05 12:24:41;;;;;;;;;;;;;;;4.01;91.23;100157.66;5025738;28;20361;-50
2021/12/05 12:27:09;;;;;;;13.15;9.93;;;;;;;4.15;90.91;100156.63;5024368;28;19924;-49
2021/12/05 12:29:36;;;;;;;11.73;7.97;;;;;;;4.25;90.00;100163.56;5025299;28;20124;-52
2021/12/05 12:32:12;;;;;;;11.00;7.63;;;;;;;4.28;90.07;100163.16;5024230;28;20033;-61
2021/12/05 12:34:39;;;;;;;10.13;7.05;;;;;;;4.27;89.68;100169.66;5042585;28;20174;-59
2021/12/05 12:37:06;;;;;;;11.43;7.88;;;;;;;4.25;90.35;100175.25;5036859;28;20487;-59
2021/12/05 12:39:44;;;;;;;11.65;8.10;;;;;;;4.24;89.97;100178.19;5034786;28;20059;-59
2021/12/05 12:42:23;;;;;;;12.57;8.73;;;;;;;4.21;89.85;100173.16;5037640;28;20099;-58
2021/12/05 12:44:58;;;;;;;13.32;10.40;;;;;;;4.18;90.36;100173.59;5026156;28;20057;-58
2021/12/05 12:47:41;;;;;;;14.38;10.68;;;;;;;4.17;90.21;100172.75;5033644;28;20029;-58
2021/12/05 12:50:29;;;;;;;14.77;10.50;;;;;;;4.16;90.54;100180.09;5044755;28;20045;-58
2021/12/05 12:53:19;;;;;;;14.70;10.98;;;;;;;4.21;90.50;100193.06;5032946;28;20163;-59
2021/12/05 12:56:17;;;;;;;14.23;10.43;;;;;;;4.19;90.28;100188.84;5017527;28;20028;-59
2021/12/05 12:58:48;;;;;;;13.88;10.50;;;;;;;4.15;89.69;100185.69;5026656;28;20076;-58
2021/12/05 13:02:13;;;;;;;14.13;11.27;;;;;;;4.16;90.45;100190.13;5041755;28;20021;-58
2021/12/05 13:05:03;;;;;;;13.80;10.05;;;;;;;4.18;90.11;100192.63;5033152;28;20072;-59
2021/12/05 13:10:27;;;;;;;12.93;9.85;;;;;;;4.18;90.24;100198.06;5021860;28;20092;-59
2021/12/05 13:13:00;;;;;;;12.48;9.32;;;;;;;4.16;90.03;100201.81;5029859;28;20036;-59
2021/12/05 13:15:29;;;;;;;11.60;8.95;;;;;;;4.16;90.36;100203.72;5033048;28;20059;-59
2021/12/05 13:18:26;;;;;;;12.70;8.55;;;;;;;4.20;89.26;100201.38;5021888;28;20492;-58
2021/12/05 13:20:56;;;;;;;12.67;10.00;;;;;;;4.25;90.00;100207.88;5027978;28;20049;-58
2021/12/05 13:23:37;;;;;;;10.75;8.43;;;;;;;4.29;90.08;100209.16;5031225;28;20304;-59
2021/12/05 13:26:23;;;;;;;11.68;8.70;;;;;;;4.35;90.35;100210.22;5022254;28;20103;-59
2021/12/05 13:29:11;;;;;;;11.38;8.27;;;;;;;4.35;90.24;100205.59;5025878;28;20433;-58
2021/12/05 13:31:40;;;;;;;12.50;10.85;;;;;;;4.35;89.63;100218.38;5023130;28;20531;-59
2021/12/05 13:34:34;;;;;;;10.73;8.23;;;;;;;4.37;89.61;100227.16;5024427;28;20376;-59
2021/12/05 13:37:05;;;;;;;12.00;8.25;;;;;;;4.32;89.94;100230.50;5039891;28;20029;-59
2021/12/05 13:39:52;;;;;;;12.27;8.55;;;;;;;4.31;89.54;100241.56;5026925;28;20075;-59
2021/12/05 13:42:22;;;;;;;11.40;7.85;;;;;;;4.28;88.81;100236.56;5024967;28;20037;-58
2021/12/05 13:45:00;;;;;;;11.50;8.30;;;;;;;4.28;89.42;100242.00;5027376;28;20052;-59
2021/12/05 13:47:37;;;;;;;12.18;8.90;;;;;;;4.26;88.42;100235.91;5024973;28;20049;-59
2021/12/05 13:50:27;;;;;;;10.77;8.15;;;;;;;4.25;88.86;100245.94;5023213;28;20045;-59
2021/12/05 13:52:57;;;;;;;10.55;7.70;;;;;;;4.28;89.82;100244.72;5010878;28;20044;-58
2021/12/05 13:55:49;;;;;;;10.85;8.32;;;;;;;4.28;88.95;100250.16;5024611;28;20025;-59
2021/12/05 13:58:25;;;;;;;11.65;9.00;;;;;;;4.24;88.31;100257.03;5023997;28;20024;-58
2021/12/05 14:00:54;;;;;;;13.63;8.98;;;;;;;4.22;88.59;100253.69;5036837;28;20021;-59
2021/12/05 14:03:40;;;;;;;12.20;8.68;;;;;;;4.24;88.76;100259.75;5031813;28;20081;-59
2021/12/05 14:06:24;;;;;;;12.10;8.68;;;;;;;4.22;89.09;100259.13;5023327;28;20037;-59
2021/12/05 14:08:52;;;;;;;12.23;8.60;;;;;;;4.17;89.32;100259.72;5023814;28;20029;-59
2021/12/05 14:11:18;;;;;;;12.02;7.75;;;;;;;4.16;89.36;100272.47;5023515;28;20029;-58
2021/12/05 14:13:43;;;;;;;10.00;7.22;;;;;;;4.15;90.00;100278.94;5024332;28;20503;-59
2021/12/05 14:16:08;;;;;;;9.15;7.22;;;;;;;4.16;89.86;100277.91;5033258;28;20113;-58
2021/12/05 14:18:34;;;;;;;9.40;7.50;;;;;;;4.20;89.89;100291.09;5040453;28;20017;-59
2021/12/05 14:21:14;;;;;;;9.45;7.53;;;;;;;4.18;90.16;100285.84;5034267;28;20032;-59
2021/12/05 14:23:46;;;;;;;10.55;7.63;;;;;;;4.16;89.16;100293.38;5037523;28;20131;-59
2021/12/05 14:26:20;;;;;;;10.52;8.05;;;;;;;4.17;90.06;100297.78;5031787;28;20084;-59
2021/12/05 14:29:04;;;;;;;9.80;7.70;;;;;;;4.20;90.51;100308.22;5028940;28;20025;-59
2021/12/05 14:31:37;;;;;;;10.65;7.63;;;;;;;4.19;90.08;100311.16;5031886;28;20041;-59
2021/12/05 14:34:04;;;;;;;10.48;7.28;;;;;;;4.22;90.48;100319.75;5024967;28;20041;-61
2021/12/05 14:36:33;;;;;;;10.43;7.43;;;;;;;4.25;90.02;100330.19;5033581;28;20021;-59
2021/12/05 14:39:37;;;;;;;9.55;7.40;;;;;;;4.29;89.93;100327.94;5023003;28;20040;-62
2021/12/05 14:42:11;;;;;;;9.60;7.15;;;;;;;4.24;89.18;100336.69;4997134;28;20085;-59
2021/12/05 14:44:38;;;;;;;9.80;7.03;;;;;;;4.21;88.67;100341.69;5022522;28;20048;-59
2021/12/05 14:47:11;;;;;;;8.93;6.80;;;;;;;4.21;89.06;100341.69;5024375;28;20017;-59
2021/12/05 14:49:39;;;;;;;9.68;6.57;;;;;;;4.21;88.67;100349.81;5029687;28;20279;-59
2021/12/05 14:52:13;;;;;;;9.65;7.05;;;;;;;4.20;88.45;100362.59;5034352;28;20047;-59
2021/12/05 14:54:39;;;;;;;9.82;6.78;;;;;;;4.18;88.44;100358.41;5037980;28;20179;-58
2021/12/05 14:57:08;;;;;;;10.25;7.20;;;;;;;4.16;88.54;100362.16;5040168;28;20017;-59
2021/12/05 14:59:33;;;;;;;11.63;8.13;;;;;;;4.15;88.59;100370.50;5038647;28;20357;-59
2021/12/05 15:01:59;;;;;;;11.65;8.27;;;;;;;4.13;88.68;100368.00;5032498;28;20044;-60
2021/12/05 15:04:29;;;;;;;11.80;8.10;;;;;;;4.13;88.54;100372.59;5039283;28;20041;-59
2021/12/05 15:06:55;;;;;;;8.95;6.32;;;;;;;4.16;89.14;100378.47;5043077;28;20398;-58
2021/12/05 15:09:27;;;;;;;9.43;6.18;;;;;;;4.15;89.04;100384.94;5026851;28;20045;-59
2021/12/05 15:12:01;;;;;;;9.05;6.30;;;;;;;4.14;89.35;100391.41;5036853;28;20032;-59
2021/12/05 15:14:28;;;;;;;8.85;6.35;;;;;;;4.12;89.16;100398.94;5041023;28;20036;-59
2021/12/05 15:16:56;;;;;;;8.75;6.05;;;;;;;4.12;89.59;100401.66;5028953;28;20147;-59
2021/12/05 15:19:22;;;;;;;;;;;;;;;4.19;89.85;100411.72;5027090;28;20026;-58
2021/12/05 15:21:48;;;;;;;8.25;5.70;;;;;;;4.09;88.70;100417.50;5040753;28;19990;-59
2021/12/05 15:24:16;;;;;;;10.25;5.68;;;;;;;4.05;88.20;100411.63;5033086;28;20026;-59
2021/12/05 15:26:41;;;;;;;7.50;5.60;;;;;;;4.09;88.50;100421.06;5034876;28;20033;-62
2021/12/05 15:29:07;;;;;;;8.55;7.05;;;;;;;4.11;88.24;100427.16;5031680;28;20582;-62
2021/12/05 15:31:39;;;;;;;9.57;6.38;;;;;;;4.12;88.59;100420.69;5029391;28;20030;-62
2021/12/05 15:34:22;;;;;;;9.77;6.47;;;;;;;4.12;89.90;100434.25;5030929;28;20025;-62
2021/12/05 15:36:48;;;;;;;8.00;6.05;;;;;;;4.09;89.16;100442.81;5031368;28;20041;-62
2021/12/05 15:39:23;;;;;;;10.15;6.68;;;;;;;4.06;89.51;100451.38;5043472;28;20063;-63
2021/12/05 15:41:50;;;;;;;10.35;7.00;;;;;;;4.05;89.68;100454.25;5045099;28;20347;-64
2021/12/05 15:44:25;;;;;;;9.80;7.20;;;;;;;4.06;89.96;100464.97;5033271;28;20037;-66
2021/12/05 15:46:59;;;;;;;10.07;7.22;;;;;;;4.04;89.08;100461.56;5026316;28;20029;-64
2021/12/05 15:49:28;;;;;;;9.07;6.97;;;;;;;4.03;88.82;100473.50;5026126;28;20460;-63
2021/12/05 15:52:00;;;;;;;9.35;6.78;;;;;;;4.02;89.29;100473.69;5039183;28;20025;-63
2021/12/05 15:54:26;;;;;;;11.13;6.90;;;;;;;3.97;89.40;100474.28;5045880;28;20078;-63
2021/12/05 15:57:07;;;;;;;11.00;7.28;;;;;;;3.94;90.33;100482.81;5034993;28;20029;-63
2021/12/05 15:59:38;;;;;;;11.55;7.43;;;;;;;3.89;90.67;100477.97;5023794;28;20104;-63
2021/12/05 16:02:07;;;;;;;10.35;7.60;;;;;;;3.88;90.84;100486.31;5031052;28;20037;-64
2021/12/05 16:04:32;;;;;;;10.32;7.43;;;;;;;3.85;91.03;100484.00;5026044;28;20042;-63
2021/12/05 16:07:00;;;;;;;9.32;7.07;;;;;;;3.85;91.16;100489.41;5028527;28;20041;-63
2021/12/05 16:09:27;;;;;;;10.18;7.20;;;;;;;3.85;91.54;100500.28;5024577;28;20099;-63
2021/12/05 16:12:06;;;;;;;11.55;7.78;;;;;;;3.87;91.15;100500.94;5040710;28;20040;-63
2021/12/05 16:14:36;;;;;;;11.60;8.02;;;;;;;3.83;91.12;100503.22;5044700;28;20025;-63
2021/12/05 16:17:25;;;;;;;10.80;7.80;;;;;;;3.83;91.42;100508.63;5029985;28;20067;-63
2021/12/05 16:20:11;;;;;;;11.48;7.70;;;;;;;3.84;91.56;100504.88;5024880;28;20036;-63
2021/12/05 16:23:03;;;;;;;13.13;8.20;;;;;;;3.86;91.48;100518.28;5026306;28;20120;-63
2021/12/05 16:25:29;;;;;;;10.52;8.13;;;;;;;3.84;91.76;100520.34;5025834;28;20128;-64
2021/12/05 16:28:01;;;;;;;11.23;8.70;;;;;;;3.84;91.96;100533.94;5037536;28;20062;-63
2021/12/05 16:30:32;;;;;;;11.68;8.48;;;;;;;3.84;91.87;100532.03;5025689;28;20018;-62
2021/12/05 16:33:01;;;;;;;11.75;8.27;;;;;;;3.89;90.73;100539.63;5025932;28;20032;-63